McCoy, Virginia
Current Conditions -  °F | °C
As of 8:55 AM on Monday 20 Oct 2014 (Local Time) from KPSK Reporting Station
Clear Clear  
Wind Chill: 40°   Ceiling: Unl
Heat Index: 40°   Visibility: 7mi
Dew Point: 40°   Wind: 0mph
Humidity: 100%   Direction: NA
Pressure: 30.12"   Gusts: NA
Location:  37.22°N, 80.6°W
Report Text: KPSK 201255Z AUTO 00000KT 7SM CLR 04/04 A3012 RMK AO2 T00440044
Loading
Personal Weather Stations






























Interactive Weather Map
Tropical Storm Tracking
New forecast layout! Learn more

10-Day Weather Forecast

Advertisements
Track Severe Weather on mobile